Zundert, Netherlands
Current Conditions -  °F | °C
As of 6:55 AM on Sunday 26 Oct 2014 (Local Time) from EHGR Reporting Station
Overcast Overcast  
Wind Chill: 54°   Ceiling: 3800
Heat Index: 54°   Visibility: 6mi
Dew Point: 50°   Wind: 8mph
Humidity: 88%   Direction: 190°S
Pressure: 30.21"   Gusts: NA
Location:  51.47°N, 4.66°E
Report Text: EHGR 260455Z AUTO 19007KT 9999 OVC038 12/10 Q1023 BLU
Loading
Personal Weather Stations






























Interactive Weather Map
Tropical Storm Tracking
New forecast layout! Learn more

10-Day Weather Forecast

Advertisements
Track Severe Weather on mobile